sensor_id;sensor_type;location;lat;lon;timestamp;P1;durP1;ratioP1;P2;durP2;ratioP2
72590;SDS011;60625;51.212;5.952;2022-12-17T00:02:12;62.20;;;25.20;;
72590;SDS011;60625;51.212;5.952;2022-12-17T00:07:31;58.20;;;22.60;;
72590;SDS011;60625;51.212;5.952;2022-12-17T00:12:51;52.70;;;22.10;;
72590;SDS011;60625;51.212;5.952;2022-12-17T00:18:10;67.10;;;23.70;;
72590;SDS011;60625;51.212;5.952;2022-12-17T00:23:29;53.70;;;22.50;;
72590;SDS011;60625;51.212;5.952;2022-12-17T00:28:48;54.30;;;22.90;;
72590;SDS011;60625;51.212;5.952;2022-12-17T00:34:07;58.20;;;23.10;;
72590;SDS011;60625;51.212;5.952;2022-12-17T00:39:34;52.70;;;21.90;;
72590;SDS011;60625;51.212;5.952;2022-12-17T00:44:53;50.90;;;22.00;;
72590;SDS011;60625;51.212;5.952;2022-12-17T00:50:12;55.20;;;23.80;;
72590;SDS011;60625;51.212;5.952;2022-12-17T00:55:31;61.60;;;25.10;;
72590;SDS011;60625;51.212;5.952;2022-12-17T01:00:50;56.00;;;23.10;;
72590;SDS011;60625;51.212;5.952;2022-12-17T01:06:10;53.30;;;23.70;;
72590;SDS011;60625;51.212;5.952;2022-12-17T01:11:29;57.50;;;24.70;;
72590;SDS011;60625;51.212;5.952;2022-12-17T01:16:48;53.20;;;23.70;;
72590;SDS011;60625;51.212;5.952;2022-12-17T01:22:08;61.70;;;25.60;;
72590;SDS011;60625;51.212;5.952;2022-12-17T01:27:27;57.60;;;25.80;;
72590;SDS011;60625;51.212;5.952;2022-12-17T01:32:46;57.60;;;24.30;;
72590;SDS011;60625;51.212;5.952;2022-12-17T01:38:12;53.60;;;23.50;;
72590;SDS011;60625;51.212;5.952;2022-12-17T01:43:38;54.60;;;23.30;;
72590;SDS011;60625;51.212;5.952;2022-12-17T01:48:57;53.10;;;23.20;;
72590;SDS011;60625;51.212;5.952;2022-12-17T01:54:17;52.00;;;21.90;;
72590;SDS011;60625;51.212;5.952;2022-12-17T01:59:47;69.20;;;24.90;;
72590;SDS011;60625;51.212;5.952;2022-12-17T02:05:16;53.10;;;23.70;;
72590;SDS011;60625;51.212;5.952;2022-12-17T02:10:48;54.30;;;24.20;;
72590;SDS011;60625;51.212;5.952;2022-12-17T02:16:19;61.00;;;26.10;;
72590;SDS011;60625;51.212;5.952;2022-12-17T02:21:41;51.10;;;23.00;;
72590;SDS011;60625;51.212;5.952;2022-12-17T02:27:05;48.90;;;21.60;;
72590;SDS011;60625;51.212;5.952;2022-12-17T02:32:27;46.40;;;19.50;;
72590;SDS011;60625;51.212;5.952;2022-12-17T02:37:48;59.50;;;23.70;;
72590;SDS011;60625;51.212;5.952;2022-12-17T02:43:08;55.40;;;21.90;;
72590;SDS011;60625;51.212;5.952;2022-12-17T02:48:29;50.40;;;22.20;;
72590;SDS011;60625;51.212;5.952;2022-12-17T02:53:52;52.00;;;21.70;;
72590;SDS011;60625;51.212;5.952;2022-12-17T02:59:12;52.40;;;22.20;;
72590;SDS011;60625;51.212;5.952;2022-12-17T03:04:37;55.60;;;22.90;;
72590;SDS011;60625;51.212;5.952;2022-12-17T03:09:56;44.40;;;20.80;;
72590;SDS011;60625;51.212;5.952;2022-12-17T03:15:16;64.60;;;24.40;;
72590;SDS011;60625;51.212;5.952;2022-12-17T03:20:35;58.70;;;23.20;;
72590;SDS011;60625;51.212;5.952;2022-12-17T03:25:58;52.80;;;23.40;;
72590;SDS011;60625;51.212;5.952;2022-12-17T03:31:18;50.90;;;21.90;;
72590;SDS011;60625;51.212;5.952;2022-12-17T03:36:38;51.40;;;22.10;;
72590;SDS011;60625;51.212;5.952;2022-12-17T03:41:57;49.80;;;21.20;;
72590;SDS011;60625;51.212;5.952;2022-12-17T03:47:16;52.60;;;20.40;;
72590;SDS011;60625;51.212;5.952;2022-12-17T03:52:35;51.80;;;21.40;;
72590;SDS011;60625;51.212;5.952;2022-12-17T03:57:54;61.30;;;23.90;;
72590;SDS011;60625;51.212;5.952;2022-12-17T04:03:13;49.70;;;22.40;;
72590;SDS011;60625;51.212;5.952;2022-12-17T04:08:32;50.90;;;22.70;;
72590;SDS011;60625;51.212;5.952;2022-12-17T04:13:51;53.80;;;22.60;;
72590;SDS011;60625;51.212;5.952;2022-12-17T04:19:10;51.70;;;22.00;;
72590;SDS011;60625;51.212;5.952;2022-12-17T04:24:30;56.20;;;22.40;;
72590;SDS011;60625;51.212;5.952;2022-12-17T04:29:49;50.10;;;21.30;;
72590;SDS011;60625;51.212;5.952;2022-12-17T04:35:08;57.70;;;23.40;;
72590;SDS011;60625;51.212;5.952;2022-12-17T04:40:27;56.20;;;22.80;;
72590;SDS011;60625;51.212;5.952;2022-12-17T04:45:48;49.30;;;23.00;;
72590;SDS011;60625;51.212;5.952;2022-12-17T04:51:08;54.10;;;22.50;;
72590;SDS011;60625;51.212;5.952;2022-12-17T04:56:27;52.70;;;22.90;;
72590;SDS011;60625;51.212;5.952;2022-12-17T05:01:47;52.90;;;22.50;;
72590;SDS011;60625;51.212;5.952;2022-12-17T05:07:06;45.80;;;20.50;;
72590;SDS011;60625;51.212;5.952;2022-12-17T05:12:25;46.80;;;20.20;;
72590;SDS011;60625;51.212;5.952;2022-12-17T05:17:45;55.90;;;22.30;;
72590;SDS011;60625;51.212;5.952;2022-12-17T05:23:05;53.00;;;22.60;;
72590;SDS011;60625;51.212;5.952;2022-12-17T05:28:26;55.40;;;24.40;;
72590;SDS011;60625;51.212;5.952;2022-12-17T05:33:45;54.30;;;22.50;;
72590;SDS011;60625;51.212;5.952;2022-12-17T05:39:04;47.30;;;19.20;;
72590;SDS011;60625;51.212;5.952;2022-12-17T05:44:23;53.50;;;22.50;;
72590;SDS011;60625;51.212;5.952;2022-12-17T05:49:45;49.20;;;22.00;;
72590;SDS011;60625;51.212;5.952;2022-12-17T05:55:04;59.00;;;24.30;;
72590;SDS011;60625;51.212;5.952;2022-12-17T06:00:24;53.20;;;22.40;;
72590;SDS011;60625;51.212;5.952;2022-12-17T06:05:43;57.90;;;24.70;;
72590;SDS011;60625;51.212;5.952;2022-12-17T06:11:02;56.00;;;21.90;;
72590;SDS011;60625;51.212;5.952;2022-12-17T06:16:21;52.10;;;22.60;;
72590;SDS011;60625;51.212;5.952;2022-12-17T06:21:41;50.90;;;21.10;;
72590;SDS011;60625;51.212;5.952;2022-12-17T06:27:00;51.40;;;21.60;;
72590;SDS011;60625;51.212;5.952;2022-12-17T06:32:19;55.10;;;23.40;;
72590;SDS011;60625;51.212;5.952;2022-12-17T06:37:38;51.90;;;21.90;;
72590;SDS011;60625;51.212;5.952;2022-12-17T06:42:57;51.10;;;21.90;;
72590;SDS011;60625;51.212;5.952;2022-12-17T06:48:16;54.20;;;24.80;;
72590;SDS011;60625;51.212;5.952;2022-12-17T06:53:35;53.20;;;22.10;;
72590;SDS011;60625;51.212;5.952;2022-12-17T06:58:54;53.90;;;23.20;;
72590;SDS011;60625;51.212;5.952;2022-12-17T07:04:13;53.90;;;24.60;;
72590;SDS011;60625;51.212;5.952;2022-12-17T07:09:33;72.30;;;24.30;;
72590;SDS011;60625;51.212;5.952;2022-12-17T07:14:52;54.80;;;22.50;;
72590;SDS011;60625;51.212;5.952;2022-12-17T07:20:11;45.90;;;21.00;;
72590;SDS011;60625;51.212;5.952;2022-12-17T07:25:30;54.40;;;20.70;;
72590;SDS011;60625;51.212;5.952;2022-12-17T07:30:49;65.30;;;26.50;;
72590;SDS011;60625;51.212;5.952;2022-12-17T07:36:09;54.70;;;22.40;;
72590;SDS011;60625;51.212;5.952;2022-12-17T07:41:28;59.60;;;22.90;;
72590;SDS011;60625;51.212;5.952;2022-12-17T07:46:47;67.40;;;23.30;;
72590;SDS011;60625;51.212;5.952;2022-12-17T07:52:06;52.00;;;19.50;;
72590;SDS011;60625;51.212;5.952;2022-12-17T07:57:25;70.70;;;26.00;;
72590;SDS011;60625;51.212;5.952;2022-12-17T08:02:44;52.70;;;22.00;;
72590;SDS011;60625;51.212;5.952;2022-12-17T08:08:08;58.90;;;23.10;;
72590;SDS011;60625;51.212;5.952;2022-12-17T08:13:28;49.30;;;18.20;;
72590;SDS011;60625;51.212;5.952;2022-12-17T08:18:47;52.50;;;19.70;;
72590;SDS011;60625;51.212;5.952;2022-12-17T08:24:06;33.10;;;12.70;;
72590;SDS011;60625;51.212;5.952;2022-12-17T08:29:26;32.70;;;14.20;;
72590;SDS011;60625;51.212;5.952;2022-12-17T08:34:45;34.30;;;14.40;;
72590;SDS011;60625;51.212;5.952;2022-12-17T08:40:05;36.40;;;15.30;;
72590;SDS011;60625;51.212;5.952;2022-12-17T08:45:24;38.60;;;15.80;;
72590;SDS011;60625;51.212;5.952;2022-12-17T08:50:43;36.50;;;13.20;;
72590;SDS011;60625;51.212;5.952;2022-12-17T08:56:03;53.10;;;18.00;;
72590;SDS011;60625;51.212;5.952;2022-12-17T09:01:22;40.90;;;16.30;;
72590;SDS011;60625;51.212;5.952;2022-12-17T09:06:42;34.30;;;14.10;;
72590;SDS011;60625;51.212;5.952;2022-12-17T09:12:02;33.00;;;15.60;;
72590;SDS011;60625;51.212;5.952;2022-12-17T09:17:21;36.20;;;15.40;;
72590;SDS011;60625;51.212;5.952;2022-12-17T09:22:40;37.30;;;15.90;;
72590;SDS011;60625;51.212;5.952;2022-12-17T09:28:00;41.50;;;15.20;;
72590;SDS011;60625;51.212;5.952;2022-12-17T09:33:20;37.80;;;15.70;;
72590;SDS011;60625;51.212;5.952;2022-12-17T09:38:39;42.70;;;17.20;;
72590;SDS011;60625;51.212;5.952;2022-12-17T09:44:12;38.70;;;16.10;;
72590;SDS011;60625;51.212;5.952;2022-12-17T09:49:33;40.50;;;16.30;;
72590;SDS011;60625;51.212;5.952;2022-12-17T09:54:53;43.70;;;18.00;;
72590;SDS011;60625;51.212;5.952;2022-12-17T10:00:21;43.20;;;17.50;;
72590;SDS011;60625;51.212;5.952;2022-12-17T10:05:43;38.40;;;15.80;;
72590;SDS011;60625;51.212;5.952;2022-12-17T10:11:22;41.00;;;17.70;;
72590;SDS011;60625;51.212;5.952;2022-12-17T10:16:45;43.80;;;19.30;;
72590;SDS011;60625;51.212;5.952;2022-12-17T10:22:12;51.40;;;20.20;;
72590;SDS011;60625;51.212;5.952;2022-12-17T10:27:33;44.60;;;18.00;;
72590;SDS011;60625;51.212;5.952;2022-12-17T10:32:55;44.90;;;18.70;;
72590;SDS011;60625;51.212;5.952;2022-12-17T10:38:28;46.50;;;18.30;;
72590;SDS011;60625;51.212;5.952;2022-12-17T10:43:48;40.40;;;16.80;;
72590;SDS011;60625;51.212;5.952;2022-12-17T10:49:19;48.80;;;18.40;;
72590;SDS011;60625;51.212;5.952;2022-12-17T10:54:40;50.00;;;18.00;;
72590;SDS011;60625;51.212;5.952;2022-12-17T10:59:59;45.90;;;17.90;;
72590;SDS011;60625;51.212;5.952;2022-12-17T11:05:34;49.90;;;17.90;;
72590;SDS011;60625;51.212;5.952;2022-12-17T11:10:54;49.30;;;18.50;;
72590;SDS011;60625;51.212;5.952;2022-12-17T11:16:33;42.80;;;17.80;;
72590;SDS011;60625;51.212;5.952;2022-12-17T11:22:02;41.90;;;16.20;;
72590;SDS011;60625;51.212;5.952;2022-12-17T11:27:42;42.30;;;16.10;;
72590;SDS011;60625;51.212;5.952;2022-12-17T11:33:15;46.40;;;16.90;;
72590;SDS011;60625;51.212;5.952;2022-12-17T11:38:42;46.60;;;16.90;;
72590;SDS011;60625;51.212;5.952;2022-12-17T11:44:13;44.00;;;15.70;;
72590;SDS011;60625;51.212;5.952;2022-12-17T11:50:01;47.50;;;16.70;;
72590;SDS011;60625;51.212;5.952;2022-12-17T11:55:41;50.90;;;17.60;;
72590;SDS011;60625;51.212;5.952;2022-12-17T12:12:55;49.50;;;14.80;;
72590;SDS011;60625;51.212;5.952;2022-12-17T12:24:35;46.00;;;15.80;;
72590;SDS011;60625;51.212;5.952;2022-12-17T12:35:32;32.20;;;10.90;;
72590;SDS011;60625;51.212;5.952;2022-12-17T12:41:08;57.10;;;18.40;;
72590;SDS011;60625;51.212;5.952;2022-12-17T12:52:02;51.00;;;15.60;;
72590;SDS011;60625;51.212;5.952;2022-12-17T12:57:38;43.60;;;15.00;;
72590;SDS011;60625;51.212;5.952;2022-12-17T13:03:07;43.20;;;15.30;;
72590;SDS011;60625;51.212;5.952;2022-12-17T13:08:32;41.00;;;12.80;;
72590;SDS011;60625;51.212;5.952;2022-12-17T13:13:35;53.80;;;17.80;;
72590;SDS011;60625;51.212;5.952;2022-12-17T13:18:38;52.30;;;16.70;;
72590;SDS011;60625;51.212;5.952;2022-12-17T13:23:39;51.10;;;16.30;;
72590;SDS011;60625;51.212;5.952;2022-12-17T13:28:42;36.50;;;12.30;;
72590;SDS011;60625;51.212;5.952;2022-12-17T13:44:39;46.60;;;14.30;;
72590;SDS011;60625;51.212;5.952;2022-12-17T13:49:49;36.20;;;14.50;;
72590;SDS011;60625;51.212;5.952;2022-12-17T13:55:12;34.00;;;12.50;;
72590;SDS011;60625;51.212;5.952;2022-12-17T14:00:26;42.30;;;13.80;;
72590;SDS011;60625;51.212;5.952;2022-12-17T14:05:35;43.50;;;15.50;;
72590;SDS011;60625;51.212;5.952;2022-12-17T14:10:52;41.50;;;15.50;;
72590;SDS011;60625;51.212;5.952;2022-12-17T14:16:15;50.40;;;17.30;;
72590;SDS011;60625;51.212;5.952;2022-12-17T14:21:17;36.70;;;12.60;;
72590;SDS011;60625;51.212;5.952;2022-12-17T14:26:18;38.90;;;14.00;;
72590;SDS011;60625;51.212;5.952;2022-12-17T14:31:25;44.80;;;14.40;;
72590;SDS011;60625;51.212;5.952;2022-12-17T14:36:27;42.90;;;15.20;;
72590;SDS011;60625;51.212;5.952;2022-12-17T14:41:36;53.20;;;18.30;;
72590;SDS011;60625;51.212;5.952;2022-12-17T14:52:35;39.90;;;15.20;;
72590;SDS011;60625;51.212;5.952;2022-12-17T14:57:38;41.90;;;15.90;;
72590;SDS011;60625;51.212;5.952;2022-12-17T15:02:41;36.70;;;13.70;;
72590;SDS011;60625;51.212;5.952;2022-12-17T15:07:42;53.10;;;18.60;;
72590;SDS011;60625;51.212;5.952;2022-12-17T15:12:43;52.90;;;20.60;;
72590;SDS011;60625;51.212;5.952;2022-12-17T15:17:44;51.40;;;19.20;;
72590;SDS011;60625;51.212;5.952;2022-12-17T15:22:45;52.70;;;19.20;;
72590;SDS011;60625;51.212;5.952;2022-12-17T15:27:46;48.10;;;17.50;;
72590;SDS011;60625;51.212;5.952;2022-12-17T15:32:46;53.70;;;20.50;;
72590;SDS011;60625;51.212;5.952;2022-12-17T15:37:47;48.00;;;18.80;;
72590;SDS011;60625;51.212;5.952;2022-12-17T15:42:47;38.00;;;13.70;;
72590;SDS011;60625;51.212;5.952;2022-12-17T15:48:07;44.50;;;15.00;;
72590;SDS011;60625;51.212;5.952;2022-12-17T15:53:09;61.70;;;21.10;;
72590;SDS011;60625;51.212;5.952;2022-12-17T15:58:09;50.00;;;18.50;;
72590;SDS011;60625;51.212;5.952;2022-12-17T16:03:10;44.70;;;17.70;;
72590;SDS011;60625;51.212;5.952;2022-12-17T16:08:11;47.40;;;18.20;;
72590;SDS011;60625;51.212;5.952;2022-12-17T16:13:12;53.40;;;17.90;;
72590;SDS011;60625;51.212;5.952;2022-12-17T16:18:14;47.90;;;18.40;;
72590;SDS011;60625;51.212;5.952;2022-12-17T16:23:16;57.10;;;21.10;;
72590;SDS011;60625;51.212;5.952;2022-12-17T16:28:19;52.40;;;19.10;;
72590;SDS011;60625;51.212;5.952;2022-12-17T16:33:19;50.80;;;18.30;;
72590;SDS011;60625;51.212;5.952;2022-12-17T16:38:20;70.40;;;24.70;;
72590;SDS011;60625;51.212;5.952;2022-12-17T16:43:21;63.70;;;24.30;;
72590;SDS011;60625;51.212;5.952;2022-12-17T16:48:22;64.70;;;25.80;;
72590;SDS011;60625;51.212;5.952;2022-12-17T16:53:23;89.40;;;28.90;;
72590;SDS011;60625;51.212;5.952;2022-12-17T16:58:23;75.60;;;26.40;;
72590;SDS011;60625;51.212;5.952;2022-12-17T17:03:23;88.70;;;30.50;;
72590;SDS011;60625;51.212;5.952;2022-12-17T17:08:24;88.30;;;29.70;;
72590;SDS011;60625;51.212;5.952;2022-12-17T17:13:24;98.50;;;32.70;;
72590;SDS011;60625;51.212;5.952;2022-12-17T17:18:25;109.80;;;34.80;;
72590;SDS011;60625;51.212;5.952;2022-12-17T17:23:28;86.60;;;30.70;;
72590;SDS011;60625;51.212;5.952;2022-12-17T17:28:29;68.30;;;24.10;;
72590;SDS011;60625;51.212;5.952;2022-12-17T17:33:33;66.40;;;24.70;;
72590;SDS011;60625;51.212;5.952;2022-12-17T17:38:36;55.40;;;23.50;;
72590;SDS011;60625;51.212;5.952;2022-12-17T17:43:38;59.90;;;22.70;;
72590;SDS011;60625;51.212;5.952;2022-12-17T17:48:40;71.40;;;25.90;;
72590;SDS011;60625;51.212;5.952;2022-12-17T17:53:41;54.80;;;19.70;;
72590;SDS011;60625;51.212;5.952;2022-12-17T17:58:49;55.90;;;19.00;;
72590;SDS011;60625;51.212;5.952;2022-12-17T18:03:52;32.90;;;14.00;;
72590;SDS011;60625;51.212;5.952;2022-12-17T18:08:55;31.10;;;12.50;;
72590;SDS011;60625;51.212;5.952;2022-12-17T18:13:58;33.50;;;13.60;;
72590;SDS011;60625;51.212;5.952;2022-12-17T18:19:04;32.60;;;12.40;;
72590;SDS011;60625;51.212;5.952;2022-12-17T18:24:13;58.60;;;19.60;;
72590;SDS011;60625;51.212;5.952;2022-12-17T18:29:23;49.90;;;16.90;;
72590;SDS011;60625;51.212;5.952;2022-12-17T18:34:25;38.60;;;14.50;;
72590;SDS011;60625;51.212;5.952;2022-12-17T18:39:27;36.60;;;14.80;;
72590;SDS011;60625;51.212;5.952;2022-12-17T18:44:29;35.90;;;14.20;;
72590;SDS011;60625;51.212;5.952;2022-12-17T18:49:30;33.50;;;13.60;;
72590;SDS011;60625;51.212;5.952;2022-12-17T18:54:30;49.70;;;16.00;;
72590;SDS011;60625;51.212;5.952;2022-12-17T18:59:31;36.70;;;15.50;;
72590;SDS011;60625;51.212;5.952;2022-12-17T19:04:32;33.90;;;13.30;;
72590;SDS011;60625;51.212;5.952;2022-12-17T19:09:33;40.20;;;15.30;;
72590;SDS011;60625;51.212;5.952;2022-12-17T19:14:35;40.20;;;16.90;;
72590;SDS011;60625;51.212;5.952;2022-12-17T19:19:36;49.20;;;18.10;;
72590;SDS011;60625;51.212;5.952;2022-12-17T19:24:36;44.00;;;16.60;;
72590;SDS011;60625;51.212;5.952;2022-12-17T19:29:36;38.00;;;14.10;;
72590;SDS011;60625;51.212;5.952;2022-12-17T19:34:37;39.20;;;14.80;;
72590;SDS011;60625;51.212;5.952;2022-12-17T19:39:37;39.60;;;14.80;;
72590;SDS011;60625;51.212;5.952;2022-12-17T19:44:38;34.70;;;14.30;;
72590;SDS011;60625;51.212;5.952;2022-12-17T19:49:38;37.40;;;13.80;;
72590;SDS011;60625;51.212;5.952;2022-12-17T19:54:39;51.90;;;18.70;;
72590;SDS011;60625;51.212;5.952;2022-12-17T19:59:39;40.60;;;16.10;;
72590;SDS011;60625;51.212;5.952;2022-12-17T20:04:40;38.10;;;15.20;;
72590;SDS011;60625;51.212;5.952;2022-12-17T20:09:41;41.60;;;15.50;;
72590;SDS011;60625;51.212;5.952;2022-12-17T20:14:43;48.30;;;18.60;;
72590;SDS011;60625;51.212;5.952;2022-12-17T20:19:44;48.30;;;19.70;;
72590;SDS011;60625;51.212;5.952;2022-12-17T20:24:44;41.10;;;16.30;;
72590;SDS011;60625;51.212;5.952;2022-12-17T20:29:44;35.30;;;14.90;;
72590;SDS011;60625;51.212;5.952;2022-12-17T20:34:45;36.90;;;15.40;;
72590;SDS011;60625;51.212;5.952;2022-12-17T20:39:46;38.20;;;14.60;;
72590;SDS011;60625;51.212;5.952;2022-12-17T20:44:46;58.00;;;19.90;;
72590;SDS011;60625;51.212;5.952;2022-12-17T20:49:47;47.20;;;18.00;;
72590;SDS011;60625;51.212;5.952;2022-12-17T20:54:47;37.80;;;14.90;;
72590;SDS011;60625;51.212;5.952;2022-12-17T20:59:48;41.70;;;15.80;;
72590;SDS011;60625;51.212;5.952;2022-12-17T21:04:49;35.90;;;13.90;;
72590;SDS011;60625;51.212;5.952;2022-12-17T21:09:49;37.10;;;15.00;;
72590;SDS011;60625;51.212;5.952;2022-12-17T21:14:50;37.80;;;16.00;;
72590;SDS011;60625;51.212;5.952;2022-12-17T21:19:50;41.30;;;15.40;;
72590;SDS011;60625;51.212;5.952;2022-12-17T21:24:51;38.70;;;15.10;;
72590;SDS011;60625;51.212;5.952;2022-12-17T21:29:51;40.60;;;15.50;;
72590;SDS011;60625;51.212;5.952;2022-12-17T21:34:52;49.90;;;18.40;;
72590;SDS011;60625;51.212;5.952;2022-12-17T21:39:52;50.70;;;16.50;;
72590;SDS011;60625;51.212;5.952;2022-12-17T21:44:53;39.40;;;14.60;;
72590;SDS011;60625;51.212;5.952;2022-12-17T21:49:53;34.60;;;14.10;;
72590;SDS011;60625;51.212;5.952;2022-12-17T21:54:54;33.10;;;13.70;;
72590;SDS011;60625;51.212;5.952;2022-12-17T21:59:54;30.60;;;12.50;;
72590;SDS011;60625;51.212;5.952;2022-12-17T22:04:55;30.50;;;12.90;;
72590;SDS011;60625;51.212;5.952;2022-12-17T22:09:55;30.80;;;12.30;;
72590;SDS011;60625;51.212;5.952;2022-12-17T22:14:56;32.50;;;13.60;;
72590;SDS011;60625;51.212;5.952;2022-12-17T22:19:56;29.70;;;11.00;;
72590;SDS011;60625;51.212;5.952;2022-12-17T22:24:56;33.70;;;12.30;;
72590;SDS011;60625;51.212;5.952;2022-12-17T22:29:57;32.90;;;11.50;;
72590;SDS011;60625;51.212;5.952;2022-12-17T22:35:16;43.80;;;16.80;;
72590;SDS011;60625;51.212;5.952;2022-12-17T22:40:17;38.80;;;14.50;;
72590;SDS011;60625;51.212;5.952;2022-12-17T22:45:19;33.50;;;11.70;;
72590;SDS011;60625;51.212;5.952;2022-12-17T22:50:19;30.40;;;12.20;;
72590;SDS011;60625;51.212;5.952;2022-12-17T22:55:20;32.80;;;13.00;;
72590;SDS011;60625;51.212;5.952;2022-12-17T23:00:24;30.30;;;11.80;;
72590;SDS011;60625;51.212;5.952;2022-12-17T23:05:29;30.80;;;12.20;;
72590;SDS011;60625;51.212;5.952;2022-12-17T23:10:31;31.20;;;12.10;;
72590;SDS011;60625;51.212;5.952;2022-12-17T23:15:33;48.80;;;18.70;;
72590;SDS011;60625;51.212;5.952;2022-12-17T23:20:35;28.60;;;12.50;;
72590;SDS011;60625;51.212;5.952;2022-12-17T23:25:36;29.90;;;11.10;;
72590;SDS011;60625;51.212;5.952;2022-12-17T23:30:37;31.20;;;12.60;;
72590;SDS011;60625;51.212;5.952;2022-12-17T23:35:37;27.40;;;9.80;;
72590;SDS011;60625;51.212;5.952;2022-12-17T23:40:38;28.30;;;10.30;;
72590;SDS011;60625;51.212;5.952;2022-12-17T23:45:40;25.30;;;10.00;;
72590;SDS011;60625;51.212;5.952;2022-12-17T23:50:41;39.10;;;14.90;;
72590;SDS011;60625;51.212;5.952;2022-12-17T23:55:41;27.60;;;11.80;;
